createdAt,value
2019-02-11T00:01:01.200Z,3.30
2019-02-11T00:03:34.105Z,3.20
2019-02-11T00:06:06.809Z,3.20
2019-02-11T00:08:39.725Z,3.20
2019-02-11T00:11:12.782Z,3.30
2019-02-11T00:13:45.656Z,3.30
2019-02-11T00:16:18.370Z,3.30
2019-02-11T00:18:51.360Z,3.30
2019-02-11T00:21:24.279Z,3.30
2019-02-11T00:23:57.211Z,3.30
2019-02-11T00:26:30.195Z,3.40
2019-02-11T00:29:02.971Z,3.40
2019-02-11T00:31:36.756Z,3.40
2019-02-11T00:34:09.632Z,3.50
2019-02-11T00:36:42.376Z,3.50
2019-02-11T00:39:15.145Z,3.50
2019-02-11T00:41:47.850Z,3.50
2019-02-11T00:44:20.602Z,3.50
2019-02-11T00:46:53.454Z,3.50
2019-02-11T00:49:26.427Z,3.50
2019-02-11T00:51:59.162Z,3.50
2019-02-11T00:54:32.016Z,3.50
2019-02-11T00:57:05.004Z,3.50
2019-02-11T00:59:37.908Z,3.50
2019-02-11T01:02:10.721Z,3.50
2019-02-11T01:04:43.556Z,3.50
2019-02-11T01:07:16.611Z,3.40
2019-02-11T01:09:49.326Z,3.40
2019-02-11T01:12:22.160Z,3.40
2019-02-11T01:14:54.975Z,3.40
2019-02-11T01:17:27.827Z,3.40
2019-02-11T01:20:00.509Z,3.40
2019-02-11T01:22:33.287Z,3.40
2019-02-11T01:25:06.167Z,3.30
2019-02-11T01:27:39.023Z,3.40
2019-02-11T01:30:11.983Z,3.40
2019-02-11T01:32:45.773Z,3.40
2019-02-11T01:35:18.748Z,3.40
2019-02-11T01:37:51.519Z,3.30
2019-02-11T01:40:24.262Z,3.30
2019-02-11T01:42:57.022Z,3.30
2019-02-11T01:45:29.827Z,3.30
2019-02-11T01:48:02.797Z,3.30
2019-02-11T01:50:35.672Z,3.30
2019-02-11T01:53:08.551Z,3.30
2019-02-11T01:55:41.376Z,3.30
2019-02-11T01:58:14.266Z,3.30
2019-02-11T02:00:46.996Z,3.30
2019-02-11T02:03:19.892Z,3.40
2019-02-11T02:05:52.682Z,3.30
2019-02-11T02:08:25.550Z,3.20
2019-02-11T02:10:58.386Z,3.30
2019-02-11T02:13:31.133Z,3.30
2019-02-11T02:16:04.046Z,3.30
2019-02-11T02:18:37.741Z,3.20
2019-02-11T02:21:10.461Z,3.20
2019-02-11T02:23:43.348Z,3.20
2019-02-11T02:26:16.246Z,3.20
2019-02-11T02:28:48.961Z,3.20
2019-02-11T02:31:21.830Z,3.20
2019-02-11T02:33:54.641Z,3.30
2019-02-11T02:36:27.458Z,3.30
2019-02-11T02:39:00.231Z,3.30
2019-02-11T02:41:33.106Z,3.40
2019-02-11T02:44:05.970Z,3.40
2019-02-11T02:46:38.738Z,3.50
2019-02-11T02:49:11.503Z,3.50
2019-02-11T02:51:44.218Z,3.50
2019-02-11T02:54:17.152Z,3.50
2019-02-11T02:56:49.987Z,3.40
2019-02-11T02:59:22.812Z,3.50
2019-02-11T03:01:55.582Z,3.50
2019-02-11T03:04:28.284Z,3.50
2019-02-11T03:07:01.053Z,3.60
2019-02-11T03:09:33.844Z,3.60
2019-02-11T03:12:06.778Z,3.60
2019-02-11T03:14:39.563Z,3.60
2019-02-11T03:17:12.311Z,3.70
2019-02-11T03:19:45.018Z,3.70
2019-02-11T03:22:17.854Z,3.70
2019-02-11T03:24:50.582Z,3.80
2019-02-11T03:27:23.463Z,3.80
2019-02-11T03:29:56.394Z,3.80
2019-02-11T03:32:29.308Z,3.80
2019-02-11T03:35:02.191Z,3.90
2019-02-11T03:37:35.147Z,3.80
2019-02-11T03:40:07.974Z,3.90
2019-02-11T03:42:40.837Z,3.90
2019-02-11T03:45:13.658Z,3.80
2019-02-11T03:47:46.567Z,3.80
2019-02-11T03:50:19.689Z,3.90
2019-02-11T03:52:52.622Z,3.90
2019-02-11T03:55:25.389Z,3.90
2019-02-11T03:57:58.286Z,3.80
2019-02-11T04:00:31.168Z,3.80
2019-02-11T04:03:03.981Z,3.90
2019-02-11T04:05:36.712Z,3.80
2019-02-11T04:08:09.504Z,3.80
2019-02-11T04:10:42.585Z,3.90
2019-02-11T04:13:15.422Z,3.90
2019-02-11T04:15:48.142Z,3.90
2019-02-11T04:18:20.879Z,3.90
2019-02-11T04:20:53.714Z,3.90
2019-02-11T04:23:26.544Z,3.90
2019-02-11T04:25:59.400Z,4.00
2019-02-11T04:28:32.269Z,4.10
2019-02-11T04:31:05.048Z,4.10
2019-02-11T04:33:37.939Z,4.10
2019-02-11T04:36:10.703Z,4.10
2019-02-11T04:38:43.494Z,4.10
2019-02-11T04:41:16.358Z,4.20
2019-02-11T04:43:49.257Z,4.20
2019-02-11T04:46:22.043Z,4.20
2019-02-11T04:48:55.005Z,4.20
2019-02-11T04:51:27.864Z,4.20
2019-02-11T04:54:00.701Z,4.20
2019-02-11T04:56:33.695Z,4.20
2019-02-11T04:59:06.572Z,4.20
2019-02-11T05:01:39.401Z,4.20
2019-02-11T05:04:12.121Z,4.10
2019-02-11T05:06:44.993Z,4.20
2019-02-11T05:09:17.864Z,4.20
2019-02-11T05:11:50.632Z,4.20
2019-02-11T05:14:23.544Z,4.20
2019-02-11T05:16:56.268Z,4.20
2019-02-11T05:19:30.086Z,4.30
2019-02-11T05:22:02.927Z,4.30
2019-02-11T05:24:36.044Z,4.30
2019-02-11T05:27:09.237Z,4.20
2019-02-11T05:29:42.225Z,4.20
2019-02-11T05:32:15.003Z,4.20
2019-02-11T05:34:47.910Z,4.20
2019-02-11T05:37:20.834Z,4.20
2019-02-11T05:39:53.784Z,4.20
2019-02-11T05:42:26.838Z,4.20
2019-02-11T05:44:59.648Z,4.20
2019-02-11T05:47:32.555Z,4.20
2019-02-11T05:50:06.345Z,4.20
2019-02-11T05:52:39.239Z,4.10
2019-02-11T05:55:13.015Z,4.10
2019-02-11T05:57:45.948Z,4.00
2019-02-11T06:00:19.091Z,4.00
2019-02-11T06:02:52.824Z,3.90
2019-02-11T06:05:25.601Z,4.00
2019-02-11T06:07:58.374Z,4.00
2019-02-11T06:10:31.599Z,3.90
2019-02-11T06:13:04.678Z,4.00
2019-02-11T06:15:37.620Z,4.10
2019-02-11T06:18:10.386Z,4.00
2019-02-11T06:20:43.414Z,4.00
2019-02-11T06:23:16.352Z,4.10
2019-02-11T06:25:49.331Z,4.10
2019-02-11T06:28:22.115Z,4.10
2019-02-11T06:30:54.865Z,4.10
2019-02-11T06:33:27.960Z,4.10
2019-02-11T06:36:00.824Z,4.10
2019-02-11T06:38:33.627Z,4.10
2019-02-11T06:41:06.433Z,4.10
2019-02-11T06:43:39.522Z,4.10
2019-02-11T06:46:12.605Z,4.20
2019-02-11T06:48:45.426Z,4.20
2019-02-11T06:51:18.351Z,4.20
2019-02-11T06:53:51.330Z,4.20
2019-02-11T06:56:24.224Z,4.20
2019-02-11T06:58:57.032Z,4.30
2019-02-11T07:01:30.112Z,4.30
2019-02-11T07:04:02.962Z,4.30
2019-02-11T07:06:35.877Z,4.20
2019-02-11T07:09:08.917Z,4.20
2019-02-11T07:11:41.820Z,4.20
2019-02-11T07:14:14.826Z,4.20
2019-02-11T07:16:47.946Z,4.20
2019-02-11T07:19:20.723Z,4.20
2019-02-11T07:21:53.685Z,4.20
2019-02-11T07:24:26.736Z,4.20
2019-02-11T07:26:59.946Z,4.20
2019-02-11T07:29:32.970Z,4.20
2019-02-11T07:32:05.846Z,4.30
2019-02-11T07:34:38.745Z,4.20
2019-02-11T07:37:11.721Z,4.30
2019-02-11T07:39:44.662Z,4.30
2019-02-11T07:42:43.112Z,4.30
2019-02-11T07:45:39.106Z,4.30
2019-02-11T07:48:11.927Z,4.30
2019-02-11T07:50:44.817Z,4.30
2019-02-11T07:53:17.641Z,4.30
2019-02-11T07:55:50.615Z,4.30
2019-02-11T07:58:23.507Z,4.40
2019-02-11T08:00:56.626Z,4.40
2019-02-11T08:03:29.398Z,4.30
2019-02-11T08:06:02.112Z,4.40
2019-02-11T08:08:35.216Z,4.40
2019-02-11T08:11:08.118Z,4.50
2019-02-11T08:13:41.158Z,4.40
2019-02-11T08:16:14.032Z,4.50
2019-02-11T08:18:47.093Z,4.50
2019-02-11T08:21:19.854Z,4.60
2019-02-11T08:23:52.738Z,4.50
2019-02-11T08:26:25.639Z,4.60
2019-02-11T08:28:58.726Z,4.50
2019-02-11T08:31:31.468Z,4.60
2019-02-11T08:34:04.498Z,4.60
2019-02-11T08:36:37.539Z,4.50
2019-02-11T08:39:10.768Z,4.40
2019-02-11T08:41:45.575Z,4.50
2019-02-11T08:44:18.488Z,4.50
2019-02-11T08:46:51.378Z,4.60
2019-02-11T08:49:24.234Z,4.70
2019-02-11T08:51:57.256Z,4.80
2019-02-11T08:54:30.241Z,4.80
2019-02-11T08:57:03.148Z,4.80
2019-02-11T08:59:36.216Z,4.80
2019-02-11T09:02:09.159Z,5.00
2019-02-11T09:04:42.062Z,4.90
2019-02-11T09:07:15.272Z,4.90
2019-02-11T09:09:51.534Z,4.80
2019-02-11T09:12:24.708Z,4.80
2019-02-11T09:14:57.518Z,4.70
2019-02-11T09:17:30.287Z,4.70
2019-02-11T09:20:05.269Z,4.80
2019-02-11T09:22:38.303Z,4.80
2019-02-11T09:25:11.309Z,4.70
2019-02-11T09:27:44.454Z,4.70
2019-02-11T09:30:17.285Z,4.70
2019-02-11T09:32:50.427Z,4.70
2019-02-11T09:35:23.184Z,4.80
2019-02-11T09:37:56.099Z,4.90
2019-02-11T09:40:28.778Z,4.90
2019-02-11T09:43:01.878Z,4.90
2019-02-11T09:45:34.658Z,5.00
2019-02-11T09:48:07.599Z,5.10
2019-02-11T09:50:46.369Z,5.10
2019-02-11T09:53:19.138Z,5.20
2019-02-11T09:55:51.895Z,5.30
2019-02-11T09:58:24.703Z,5.20
2019-02-11T10:00:57.707Z,5.10
2019-02-11T10:03:30.540Z,5.10
2019-02-11T10:06:03.560Z,5.10
2019-02-11T10:08:36.304Z,5.10
2019-02-11T10:11:09.172Z,5.10
2019-02-11T10:13:42.060Z,5.20
2019-02-11T10:16:14.967Z,5.20
2019-02-11T10:18:47.874Z,5.40
2019-02-11T10:21:20.780Z,5.60
2019-02-11T10:23:53.536Z,5.60
2019-02-11T10:26:26.338Z,5.70
2019-02-11T10:28:59.057Z,5.90
2019-02-11T10:31:32.087Z,6.10
2019-02-11T10:34:05.106Z,5.90
2019-02-11T10:36:37.873Z,5.80
2019-02-11T10:39:10.665Z,6.00
2019-02-11T10:41:44.398Z,5.80
2019-02-11T10:44:17.328Z,5.90
2019-02-11T10:46:50.358Z,5.80
2019-02-11T10:49:23.249Z,5.70
2019-02-11T10:51:56.095Z,5.70
2019-02-11T10:54:29.158Z,5.60
2019-02-11T10:57:02.129Z,5.60
2019-02-11T10:59:35.146Z,5.60
2019-02-11T11:02:08.205Z,5.70
2019-02-11T11:04:40.940Z,5.70
2019-02-11T11:07:13.956Z,5.90
2019-02-11T11:09:46.754Z,6.10
2019-02-11T11:12:19.760Z,6.70
2019-02-11T11:14:52.816Z,6.70
2019-02-11T11:17:25.730Z,7.00
2019-02-11T11:19:58.601Z,7.10
2019-02-11T11:22:31.514Z,7.60
2019-02-11T11:25:04.912Z,7.50
2019-02-11T11:27:37.706Z,7.20
2019-02-11T11:30:11.186Z,6.90
2019-02-11T11:32:44.300Z,6.70
2019-02-11T11:35:17.265Z,6.60
2019-02-11T11:37:50.408Z,6.40
2019-02-11T11:40:23.684Z,6.40
2019-02-11T11:42:56.523Z,6.40
2019-02-11T11:45:29.436Z,6.40
2019-02-11T11:48:02.275Z,6.50
2019-02-11T11:50:35.125Z,6.50
2019-02-11T11:53:07.984Z,6.50
2019-02-11T11:55:41.052Z,6.40
2019-02-11T11:58:13.930Z,6.30
2019-02-11T12:00:46.892Z,6.30
2019-02-11T12:03:19.776Z,6.30
2019-02-11T12:05:52.880Z,6.20
2019-02-11T12:08:25.915Z,6.00
2019-02-11T12:10:58.760Z,6.00
2019-02-11T12:13:31.824Z,6.00
2019-02-11T12:16:04.763Z,6.00
2019-02-11T12:18:37.781Z,5.90
2019-02-11T12:21:10.534Z,5.80
2019-02-11T12:23:43.406Z,5.80
2019-02-11T12:26:16.316Z,5.80
2019-02-11T12:28:49.255Z,5.80
2019-02-11T12:31:22.072Z,5.70
2019-02-11T12:33:54.949Z,5.70
2019-02-11T12:36:27.808Z,5.60
2019-02-11T12:39:00.757Z,5.60
2019-02-11T12:41:35.435Z,5.50
2019-02-11T12:44:08.220Z,5.40
2019-02-11T12:46:41.257Z,5.30
2019-02-11T12:49:14.359Z,5.20
2019-02-11T12:51:47.213Z,5.20
2019-02-11T12:54:20.110Z,5.20
2019-02-11T12:56:52.896Z,5.10
2019-02-11T12:59:25.755Z,5.10
2019-02-11T13:01:58.712Z,5.00
2019-02-11T13:04:31.590Z,5.20
2019-02-11T13:07:04.530Z,5.10
2019-02-11T13:09:37.680Z,5.10
2019-02-11T13:12:11.554Z,5.10
2019-02-11T13:14:45.008Z,5.00
2019-02-11T13:17:32.870Z,5.10
2019-02-11T13:20:07.909Z,5.00
2019-02-11T13:22:27.501Z,5.00
2019-02-11T13:25:00.638Z,5.00
2019-02-11T13:27:33.637Z,5.10
2019-02-11T13:30:08.529Z,5.10
2019-02-11T13:32:41.600Z,5.20
2019-02-11T13:35:14.510Z,5.10
2019-02-11T13:37:47.329Z,5.20
2019-02-11T13:40:20.206Z,5.20
2019-02-11T13:42:54.060Z,5.30
2019-02-11T13:45:27.168Z,5.30
2019-02-11T13:48:00.017Z,5.30
2019-02-11T13:50:32.889Z,5.30
2019-02-11T13:53:05.942Z,5.30
2019-02-11T13:55:38.940Z,5.20
2019-02-11T13:58:11.875Z,5.20
2019-02-11T14:00:49.953Z,5.20
2019-02-11T14:03:20.501Z,5.10
2019-02-11T14:05:53.586Z,5.10
2019-02-11T14:08:26.518Z,5.00
2019-02-11T14:10:59.438Z,5.00
2019-02-11T14:13:32.456Z,5.00
2019-02-11T14:16:05.240Z,5.00
2019-02-11T14:18:38.185Z,4.90
2019-02-11T14:21:11.130Z,4.90
2019-02-11T14:23:43.939Z,5.00
2019-02-11T14:26:16.935Z,5.00
2019-02-11T14:28:50.024Z,5.10
2019-02-11T14:31:23.138Z,5.30
2019-02-11T14:33:56.301Z,5.40
2019-02-11T14:36:29.488Z,5.30
2019-02-11T14:39:04.410Z,5.30
2019-02-11T14:41:39.085Z,5.30
2019-02-11T14:44:13.326Z,5.20
2019-02-11T14:46:46.974Z,5.10
2019-02-11T14:49:20.041Z,5.20
2019-02-11T14:51:53.096Z,5.10
2019-02-11T14:54:26.098Z,5.10
2019-02-11T14:56:59.176Z,5.20
2019-02-11T14:59:32.121Z,5.10
2019-02-11T15:02:05.017Z,5.00
2019-02-11T15:04:37.860Z,5.10
2019-02-11T15:07:10.724Z,5.30
2019-02-11T15:09:43.573Z,5.40
2019-02-11T15:12:16.432Z,5.20
2019-02-11T15:14:49.251Z,5.10
2019-02-11T15:17:22.134Z,5.00
2019-02-11T15:19:55.079Z,5.00
2019-02-11T15:22:28.172Z,4.90
2019-02-11T15:25:01.039Z,4.90
2019-02-11T15:27:33.842Z,5.00
2019-02-11T15:30:07.894Z,5.00
2019-02-11T15:32:40.772Z,5.10
2019-02-11T15:35:13.572Z,5.10
2019-02-11T15:37:46.378Z,5.10
2019-02-11T15:40:20.461Z,5.00
2019-02-11T15:42:53.284Z,5.00
2019-02-11T15:45:26.139Z,5.00
2019-02-11T15:47:58.902Z,5.00
2019-02-11T15:50:31.779Z,5.00
2019-02-11T15:53:04.678Z,4.90
2019-02-11T15:55:37.594Z,4.80
2019-02-11T15:58:10.391Z,4.80
2019-02-11T16:00:43.148Z,4.80
2019-02-11T16:03:16.037Z,4.80
2019-02-11T16:05:49.992Z,4.70
2019-02-11T16:08:22.948Z,4.70
2019-02-11T16:11:01.200Z,4.70
2019-02-11T16:13:30.671Z,4.70
2019-02-11T16:16:03.573Z,4.70
2019-02-11T16:18:36.609Z,4.70
2019-02-11T16:21:09.364Z,4.70
2019-02-11T16:23:42.194Z,4.60
2019-02-11T16:26:15.899Z,4.50
2019-02-11T16:28:48.788Z,4.40
2019-02-11T16:31:21.519Z,4.30
2019-02-11T16:33:54.327Z,4.30
2019-02-11T16:36:27.172Z,4.40
2019-02-11T16:38:59.987Z,4.40
2019-02-11T16:41:32.759Z,4.30
2019-02-11T16:44:05.472Z,4.20
2019-02-11T16:46:38.411Z,4.10
2019-02-11T16:49:11.312Z,4.20
2019-02-11T16:51:44.225Z,4.10
2019-02-11T16:54:17.090Z,4.00
2019-02-11T16:56:49.935Z,4.00
2019-02-11T16:59:22.674Z,3.90
2019-02-11T17:01:55.418Z,3.90
2019-02-11T17:04:28.318Z,3.80
2019-02-11T17:07:01.169Z,3.70
2019-02-11T17:09:33.939Z,3.70
2019-02-11T17:12:06.819Z,3.60
2019-02-11T17:14:39.733Z,3.60
2019-02-11T17:17:12.680Z,3.70
2019-02-11T17:19:45.531Z,3.60
2019-02-11T17:22:18.441Z,3.50
2019-02-11T17:24:51.489Z,3.50
2019-02-11T17:27:24.244Z,3.40
2019-02-11T17:29:57.283Z,3.30
2019-02-11T17:32:30.168Z,3.30
2019-02-11T17:35:03.095Z,3.40
2019-02-11T17:37:35.961Z,3.40
2019-02-11T17:40:11.636Z,3.30
2019-02-11T17:42:44.352Z,3.30
2019-02-11T17:45:19.387Z,3.20
2019-02-11T17:47:52.098Z,3.20
2019-02-11T17:50:24.925Z,3.30
2019-02-11T17:52:59.421Z,3.30
2019-02-11T17:55:32.517Z,3.30
2019-02-11T17:58:05.470Z,3.50
2019-02-11T18:00:44.436Z,3.50
2019-02-11T18:03:17.230Z,3.50
2019-02-11T18:05:50.340Z,3.70
2019-02-11T18:08:23.254Z,3.70
2019-02-11T18:10:56.119Z,3.90
2019-02-11T18:13:29.072Z,3.90
2019-02-11T18:16:01.814Z,3.90
2019-02-11T18:18:34.715Z,3.80
2019-02-11T18:21:07.554Z,3.70
2019-02-11T18:23:40.422Z,3.70
2019-02-11T18:26:13.166Z,3.60
2019-02-11T18:28:46.035Z,3.70
2019-02-11T18:31:18.932Z,3.70
2019-02-11T18:33:51.736Z,3.70
2019-02-11T18:36:24.561Z,3.70
2019-02-11T18:38:57.329Z,3.70
2019-02-11T18:41:30.188Z,3.80
2019-02-11T18:44:03.059Z,3.80
2019-02-11T18:46:35.971Z,3.80
2019-02-11T18:49:08.872Z,3.70
2019-02-11T18:51:41.856Z,3.70
2019-02-11T18:54:14.694Z,3.70
2019-02-11T18:56:47.500Z,3.60
2019-02-11T18:59:24.748Z,3.50
2019-02-11T19:01:55.409Z,3.40
2019-02-11T19:04:28.217Z,3.30
2019-02-11T19:07:01.048Z,3.40
2019-02-11T19:09:33.922Z,3.20
2019-02-11T19:12:06.852Z,3.10
2019-02-11T19:14:39.691Z,3.00
2019-02-11T19:17:12.542Z,3.00
2019-02-11T19:19:45.592Z,2.90
2019-02-11T19:22:18.408Z,3.00
2019-02-11T19:24:51.255Z,3.00
2019-02-11T19:27:24.102Z,2.90
2019-02-11T19:29:56.870Z,2.90
2019-02-11T19:32:29.725Z,2.70
2019-02-11T19:35:02.463Z,2.70
2019-02-11T19:37:35.520Z,2.60
2019-02-11T19:40:10.086Z,2.60
2019-02-11T19:42:42.926Z,2.50
2019-02-11T19:45:16.721Z,2.40
2019-02-11T19:47:49.645Z,2.30
2019-02-11T19:50:22.575Z,2.40
2019-02-11T19:52:55.562Z,2.30
2019-02-11T19:55:28.357Z,2.20
2019-02-11T19:58:01.258Z,2.30
2019-02-11T20:00:34.478Z,2.30
2019-02-11T20:03:07.347Z,2.20
2019-02-11T20:05:40.182Z,2.10
2019-02-11T20:08:14.007Z,2.00
2019-02-11T20:10:47.017Z,2.00
2019-02-11T20:13:19.867Z,2.00
2019-02-11T20:15:52.690Z,1.90
2019-02-11T20:18:26.723Z,1.80
2019-02-11T20:20:59.612Z,1.70
2019-02-11T20:23:32.496Z,1.70
2019-02-11T20:26:05.392Z,1.60
2019-02-11T20:28:38.245Z,1.70
2019-02-11T20:31:11.293Z,1.60
2019-02-11T20:33:44.228Z,1.60
2019-02-11T20:36:18.204Z,1.60
2019-02-11T20:38:51.328Z,1.50
2019-02-11T20:41:24.128Z,1.40
2019-02-11T20:43:56.853Z,1.40
2019-02-11T20:46:29.677Z,1.50
2019-02-11T20:49:02.482Z,1.40
2019-02-11T20:51:35.290Z,1.50
2019-02-11T20:54:08.189Z,1.40
2019-02-11T20:56:41.292Z,1.40
2019-02-11T20:59:14.095Z,1.30
2019-02-11T21:01:47.087Z,1.10
2019-02-11T21:04:19.883Z,1.00
2019-02-11T21:06:52.738Z,1.00
2019-02-11T21:09:25.707Z,1.00
2019-02-11T21:11:58.592Z,1.00
2019-02-11T21:14:31.448Z,1.00
2019-02-11T21:17:05.063Z,1.00
2019-02-11T21:19:37.958Z,0.90
2019-02-11T21:22:10.728Z,1.00
2019-02-11T21:24:43.689Z,1.00
2019-02-11T21:27:16.588Z,1.10
2019-02-11T21:29:49.518Z,1.20
2019-02-11T21:32:22.289Z,1.10
2019-02-11T21:34:55.046Z,1.00
2019-02-11T21:37:27.963Z,1.00
2019-02-11T21:40:00.807Z,1.00
2019-02-11T21:42:33.786Z,1.00
2019-02-11T21:45:07.209Z,1.10
2019-02-11T21:47:39.991Z,1.20
2019-02-11T21:50:13.604Z,1.20
2019-02-11T21:52:46.564Z,1.20
2019-02-11T21:55:19.499Z,1.10
2019-02-11T21:57:52.278Z,1.10
2019-02-11T22:00:25.132Z,1.10
2019-02-11T22:02:57.899Z,1.10
2019-02-11T22:05:30.816Z,1.10
2019-02-11T22:08:03.714Z,1.10
2019-02-11T22:10:36.609Z,1.10
2019-02-11T22:13:09.395Z,1.10
2019-02-11T22:15:42.253Z,1.00
2019-02-11T22:18:15.279Z,0.90
2019-02-11T22:20:48.314Z,0.90
2019-02-11T22:23:21.190Z,0.80
2019-02-11T22:25:53.950Z,0.90
2019-02-11T22:28:26.908Z,0.90
2019-02-11T22:30:59.809Z,0.80
2019-02-11T22:33:32.640Z,0.90
2019-02-11T22:36:05.411Z,0.90
2019-02-11T22:38:38.325Z,0.90
2019-02-11T22:41:11.214Z,1.00
2019-02-11T22:43:44.067Z,0.90
2019-02-11T22:46:16.881Z,1.00
2019-02-11T22:48:49.822Z,1.10
2019-02-11T22:51:22.725Z,1.10
2019-02-11T22:53:55.654Z,1.20
2019-02-11T22:56:28.459Z,1.20
2019-02-11T22:59:01.573Z,1.20
2019-02-11T23:01:35.459Z,1.10
2019-02-11T23:04:08.481Z,1.10
2019-02-11T23:06:41.396Z,1.00
2019-02-11T23:09:14.272Z,0.90
2019-02-11T23:11:47.179Z,1.00
2019-02-11T23:14:19.998Z,1.10
2019-02-11T23:16:52.921Z,1.10
2019-02-11T23:19:25.754Z,1.20
2019-02-11T23:21:58.672Z,1.20
2019-02-11T23:24:31.565Z,1.20
2019-02-11T23:27:04.607Z,1.30
2019-02-11T23:29:37.471Z,1.20
2019-02-11T23:32:10.334Z,1.30
2019-02-11T23:34:43.280Z,1.30
2019-02-11T23:37:16.119Z,1.30
2019-02-11T23:39:48.914Z,1.30
2019-02-11T23:42:21.687Z,1.40
2019-02-11T23:44:54.485Z,1.40
2019-02-11T23:47:27.286Z,1.40
2019-02-11T23:50:00.227Z,1.60
2019-02-11T23:52:34.150Z,1.60
2019-02-11T23:55:07.010Z,1.70
2019-02-11T23:57:39.734Z,1.70
